Black Diamond, Canada
Current Conditions -  °F | °C
As of 12:00 PM on Tuesday 21 Oct 2014 (Local Time) from CYBW Reporting Station
Broken Clouds Broken Clouds  
Wind Chill: 55°   Ceiling: 17000
Heat Index: 55°   Visibility: 9mi
Dew Point: 34°   Wind: 14mph
Humidity: 44%   Direction: 280°W
Pressure: 29.66"   Gusts: NA
Location:  50.7°N, 114.23°W
Report Text: CYBW 211800Z AUTO 28012KT 9SM BKN170 13/01 A2966 RMK SLP056 DENSITY ALT 4800FT
Loading
Personal Weather Stations






























Interactive Weather Map
Tropical Storm Tracking
New forecast layout! Learn more

10-Day Weather Forecast

Advertisements
Track Severe Weather on mobile